Time;durP1;ratioP1;P1;durP2;ratioP2;P2;SDS_P1;SDS_P2;PMS_P1;PMS_P2;Temp;Humidity;BMP_temperature;BMP_pressure;BME280_temperature;BME280_humidity;BME280_pressure;Samples;Min_cycle;Max_cycle;Signal;HPM_P1;HPM_P2
2022/06/13 00:01:38;;;;;;;;;0.00;0.00;22.00;99.90;;;;;;5088289;27;8865;-49
2022/06/13 00:04:10;;;;;;;;;0.00;0.00;22.00;99.90;;;;;;5081778;27;8821;-53
2022/06/13 00:06:43;;;;;;;;;0.00;0.00;22.00;99.90;;;;;;5084761;27;9603;-52
2022/06/13 00:09:13;;;;;;;;;0.00;0.00;21.90;99.90;;;;;;5084784;27;8890;-49
2022/06/13 00:11:44;;;;;;;;;0.00;0.00;21.80;99.90;;;;;;5083735;27;9010;-46
2022/06/13 00:14:14;;;;;;;;;0.00;0.00;21.70;99.90;;;;;;5086639;27;8941;-49
2022/06/13 00:16:45;;;;;;;;;0.00;0.00;21.70;99.90;;;;;;5086217;27;8872;-53
2022/06/13 00:19:17;;;;;;;;;0.00;0.00;21.80;99.90;;;;;;5084661;27;8888;-49
2022/06/13 00:21:48;;;;;;;;;0.00;0.00;21.70;99.90;;;;;;5089319;27;8925;-52
2022/06/13 00:24:19;;;;;;;;;0.00;0.00;21.70;99.90;;;;;;5090374;28;8854;-50
2022/06/13 00:26:50;;;;;;;;;0.00;0.00;21.70;99.90;;;;;;5085915;27;9685;-52
2022/06/13 00:29:21;;;;;;;;;0.00;0.00;21.60;99.90;;;;;;5082481;28;8872;-52
2022/06/13 00:31:52;;;;;;;;;0.00;0.00;21.60;99.90;;;;;;5082167;27;8837;-51
2022/06/13 00:34:23;;;;;;;;;0.00;0.00;21.60;99.90;;;;;;5082431;27;9031;-54
2022/06/13 00:36:53;;;;;;;;;0.00;0.00;21.50;99.90;;;;;;5086853;27;8976;-53
2022/06/13 00:39:23;;;;;;;;;0.00;0.00;21.50;99.90;;;;;;5082715;27;8856;-47
2022/06/13 00:41:54;;;;;;;;;0.00;0.00;21.50;99.90;;;;;;5067096;28;8838;-48
2022/06/13 00:44:32;;;;;;;;;0.00;0.00;21.50;99.90;;;;;;5082252;27;8817;-46
2022/06/13 00:47:02;;;;;;;;;0.00;0.00;21.50;99.90;;;;;;5080984;27;9939;-48
2022/06/13 00:49:44;;;;;;;;;0.00;0.00;21.40;99.90;;;;;;5085343;27;8855;-52
2022/06/13 00:52:22;;;;;;;;;0.00;0.00;21.30;99.90;;;;;;5085899;28;8899;-52
2022/06/13 00:54:55;;;;;;;;;0.00;0.00;21.30;99.90;;;;;;5088337;27;8868;-53
2022/06/13 00:57:29;;;;;;;;;0.00;0.00;21.20;99.90;;;;;;5084165;27;9018;-51
2022/06/13 01:00:05;;;;;;;;;0.00;0.00;21.30;99.90;;;;;;5081900;27;8863;-46
2022/06/13 01:02:43;;;;;;;;;0.00;0.00;21.30;99.90;;;;;;5082532;27;8933;-47
2022/06/13 01:05:20;;;;;;;;;0.00;0.00;21.30;99.90;;;;;;5084587;27;8853;-50
2022/06/13 01:07:54;;;;;;;;;0.00;0.00;21.20;99.90;;;;;;5083936;28;8989;-53
2022/06/13 01:13:13;;;;;;;;;0.00;0.00;21.20;99.90;;;;;;5083237;28;8841;-58
2022/06/13 01:16:07;;;;;;;;;0.00;0.00;21.20;99.90;;;;;;5081402;27;8861;-46
2022/06/13 01:19:19;;;;;;;;;0.00;0.00;21.20;99.90;;;;;;5087013;27;8829;-45
2022/06/13 01:21:59;;;;;;;;;0.00;0.00;21.20;99.90;;;;;;5086159;28;8904;-50
2022/06/13 01:24:35;;;;;;;;;0.00;0.00;21.20;99.90;;;;;;5082579;28;8935;-47
2022/06/13 01:27:06;;;;;;;;;0.00;0.00;21.20;99.90;;;;;;5069550;28;8861;-45
2022/06/13 01:29:46;;;;;;;;;0.00;0.00;21.20;99.90;;;;;;5080335;27;8872;-52
2022/06/13 01:32:16;;;;;;;;;0.00;0.00;21.20;99.90;;;;;;5089047;28;9564;-52
2022/06/13 01:34:49;;;;;;;;;0.00;0.00;21.30;99.90;;;;;;5082924;28;8848;-46
2022/06/13 01:37:42;;;;;;;;;0.00;0.00;21.20;99.90;;;;;;5082502;27;8877;-46
2022/06/13 01:40:31;;;;;;;;;2.00;0.00;21.20;99.90;;;;;;5085078;28;8859;-44
2022/06/13 01:43:11;;;;;;;;;0.00;0.00;21.30;99.90;;;;;;5082681;28;8830;-47
2022/06/13 01:46:01;;;;;;;;;0.00;0.00;21.30;99.90;;;;;;5078884;28;8860;-48
2022/06/13 01:48:37;;;;;;;;;0.00;0.00;21.40;99.90;;;;;;5076650;27;8829;-50
2022/06/13 01:51:19;;;;;;;;;0.00;0.00;21.40;99.90;;;;;;5085279;27;8841;-49
2022/06/13 01:54:08;;;;;;;;;0.00;0.00;21.40;99.90;;;;;;5081762;28;8868;-48
2022/06/13 01:56:51;;;;;;;;;0.00;0.00;21.50;99.90;;;;;;5081544;27;8864;-48
2022/06/13 01:59:31;;;;;;;;;0.00;0.00;21.50;99.90;;;;;;5087315;28;8873;-46
2022/06/13 02:02:24;;;;;;;;;0.00;0.00;21.50;99.90;;;;;;5086480;28;8872;-48
2022/06/13 02:05:05;;;;;;;;;0.00;0.00;21.50;99.90;;;;;;5079155;27;8878;-49
2022/06/13 02:07:43;;;;;;;;;0.00;0.00;21.50;99.90;;;;;;5086488;28;8847;-46
2022/06/13 02:10:41;;;;;;;;;0.00;0.00;21.50;99.90;;;;;;5085346;28;8905;-46
2022/06/13 02:13:22;;;;;;;;;0.00;0.00;21.50;99.90;;;;;;5085265;27;9037;-44
2022/06/13 02:16:01;;;;;;;;;0.00;0.00;21.50;99.90;;;;;;5082718;28;8813;-44
2022/06/13 02:18:42;;;;;;;;;0.00;0.00;21.50;99.90;;;;;;5083292;27;8837;-49
2022/06/13 02:21:14;;;;;;;;;0.00;0.00;21.40;99.90;;;;;;5085355;28;8837;-50
2022/06/13 02:23:50;;;;;;;;;1.00;1.00;21.20;99.90;;;;;;5086815;27;10151;-49
2022/06/13 02:26:27;;;;;;;;;0.00;0.00;21.20;99.90;;;;;;5086542;28;8805;-49
2022/06/13 02:29:11;;;;;;;;;0.25;0.25;21.10;99.90;;;;;;5087691;27;8829;-48
2022/06/13 02:31:59;;;;;;;;;0.00;0.00;21.10;99.90;;;;;;5080801;28;8845;-48
2022/06/13 02:35:08;;;;;;;;;0.25;0.25;21.10;99.90;;;;;;5090434;28;8834;-45
2022/06/13 02:38:12;;;;;;;;;0.00;0.00;21.10;99.90;;;;;;5076585;27;8855;-46
2022/06/13 02:41:06;;;;;;;;;0.00;0.00;21.00;99.90;;;;;;5033526;28;8882;-47
2022/06/13 02:43:50;;;;;;;;;1.25;0.00;20.90;99.90;;;;;;5083219;28;8932;-46
2022/06/13 02:46:40;;;;;;;;;0.00;0.00;20.90;99.90;;;;;;5086176;28;8877;-50
2022/06/13 02:49:44;;;;;;;;;0.00;0.00;21.00;99.90;;;;;;5087846;28;8841;-45
2022/06/13 02:52:27;;;;;;;;;1.00;1.00;21.10;99.90;;;;;;5084838;28;8833;-46
2022/06/13 02:55:05;;;;;;;;;2.00;0.75;21.00;99.90;;;;;;5083735;28;8968;-45
2022/06/13 02:57:49;;;;;;;;;0.50;0.50;21.00;99.90;;;;;;5089749;27;8979;-51
2022/06/13 03:00:24;;;;;;;;;0.00;0.00;20.90;99.90;;;;;;5088677;28;8865;-49
2022/06/13 03:03:15;;;;;;;;;1.00;1.00;20.80;99.90;;;;;;5090451;27;8860;-49
2022/06/13 03:05:53;;;;;;;;;0.50;0.00;20.70;99.90;;;;;;5088202;28;8846;-44
2022/06/13 03:08:32;;;;;;;;;2.00;2.00;20.60;99.90;;;;;;5091699;27;8841;-45
2022/06/13 03:11:20;;;;;;;;;2.00;1.00;20.50;99.90;;;;;;5088902;28;8838;-45
2022/06/13 03:14:32;;;;;;;;;2.00;0.00;20.40;99.90;;;;;;5084641;28;8898;-46
2022/06/13 03:17:13;;;;;;;;;0.33;0.33;20.40;99.90;;;;;;5089951;27;9652;-45
2022/06/13 03:19:57;;;;;;;;;1.00;1.00;20.40;99.90;;;;;;5082061;27;8960;-48
2022/06/13 03:23:08;;;;;;;;;0.00;0.00;20.30;99.90;;;;;;5088267;28;8871;-48
2022/06/13 03:26:09;;;;;;;;;1.00;1.00;20.30;99.90;;;;;;5006567;28;9210;-48
2022/06/13 03:28:52;;;;;;;;;0.33;0.33;20.20;99.90;;;;;;5084533;27;9109;-46
2022/06/13 03:31:49;;;;;;;;;0.33;0.33;20.20;99.90;;;;;;5088204;28;9095;-46
2022/06/13 03:34:24;;;;;;;;;0.00;0.00;20.10;99.90;;;;;;5063534;28;9089;-50
2022/06/13 03:36:59;;;;;;;;;2.67;2.00;20.00;99.90;;;;;;5087651;28;9052;-48
2022/06/13 03:40:02;;;;;;;;;1.00;1.00;20.00;99.90;;;;;;5089064;27;9932;-48
2022/06/13 03:42:57;;;;;;;;;1.00;1.00;19.90;99.90;;;;;;5090550;28;9310;-48
2022/06/13 03:45:57;;;;;;;;;1.00;1.00;19.90;99.90;;;;;;5087166;28;8928;-47
2022/06/13 03:48:56;;;;;;;;;0.67;0.67;19.90;99.90;;;;;;5062164;28;9254;-48
2022/06/13 03:51:39;;;;;;;;;1.00;1.00;19.90;99.90;;;;;;5085101;27;10075;-46
2022/06/13 03:54:44;;;;;;;;;1.00;1.00;19.80;99.90;;;;;;5087920;28;9222;-45
2022/06/13 03:57:40;;;;;;;;;1.00;1.00;19.80;99.90;;;;;;5082003;28;9303;-47
2022/06/13 04:00:28;;;;;;;;;1.00;1.00;19.70;99.90;;;;;;5079908;27;9988;-48
2022/06/13 04:03:00;;;;;;;;;2.00;2.00;19.60;99.90;;;;;;5085786;28;9318;-45
2022/06/13 04:05:42;;;;;;;;;1.00;1.00;19.60;99.90;;;;;;5082482;27;10314;-46
2022/06/13 04:08:15;;;;;;;;;2.00;2.00;19.60;99.90;;;;;;5086000;28;9431;-47
2022/06/13 04:11:04;;;;;;;;;2.00;2.00;19.50;99.90;;;;;;5089827;28;9489;-49
2022/06/13 04:14:19;;;;;;;;;1.00;1.00;19.40;99.90;;;;;;5084272;27;9513;-47
2022/06/13 04:17:03;;;;;;;;;2.00;2.00;19.40;99.90;;;;;;5052115;27;9473;-45
2022/06/13 04:19:56;;;;;;;;;1.33;1.33;19.40;99.90;;;;;;5072333;28;9524;-47
2022/06/13 04:23:18;;;;;;;;;0.67;0.67;19.30;99.90;;;;;;5090635;27;9518;-46
2022/06/13 04:26:10;;;;;;;;;0.00;0.00;19.30;99.90;;;;;;5058051;27;9346;-47
2022/06/13 04:29:01;;;;;;;;;0.75;0.75;19.20;99.90;;;;;;5090249;27;9465;-50
2022/06/13 04:31:34;;;;;;;;;0.75;0.75;19.20;99.90;;;;;;5086512;28;9628;-47
2022/06/13 04:34:17;;;;;;;;;0.75;0.75;19.10;99.90;;;;;;5082031;27;9756;-48
2022/06/13 04:36:49;;;;;;;;;2.00;2.00;19.10;99.90;;;;;;5083703;28;9689;-50
2022/06/13 04:39:27;;;;;;;;;3.00;3.00;19.10;99.90;;;;;;5090552;27;9883;-46
2022/06/13 04:41:59;;;;;;;;;3.50;3.25;18.90;99.90;;;;;;5083711;27;9682;-47
2022/06/13 04:44:34;;;;;;;;;4.00;4.00;18.90;99.90;;;;;;5086578;27;10062;-47
2022/06/13 04:47:05;;;;;;;;;5.50;5.50;18.90;99.90;;;;;;5087848;28;10082;-49
2022/06/13 04:49:56;;;;;;;;;6.00;6.00;18.90;99.90;;;;;;5082963;27;10219;-47
2022/06/13 04:52:35;;;;;;;;;9.50;9.50;18.90;99.90;;;;;;5086435;28;10775;-46
2022/06/13 04:55:24;;;;;;;;;9.00;9.00;18.80;99.90;;;;;;5085195;27;10288;-45
2022/06/13 04:57:54;;;;;;;;;7.00;7.00;18.90;99.90;;;;;;5082036;28;10293;-49
2022/06/13 05:00:24;;;;;;;;;9.50;9.50;18.80;99.90;;;;;;5084167;27;10594;-45
2022/06/13 05:02:57;;;;;;;;;9.25;9.25;18.80;99.90;;;;;;5086414;27;10399;-46
2022/06/13 05:05:43;;;;;;;;;11.25;11.25;18.80;99.90;;;;;;5085274;27;10458;-48
2022/06/13 05:08:27;;;;;;;;;11.00;11.00;18.80;99.90;;;;;;5090937;27;10343;-45
2022/06/13 05:11:05;;;;;;;;;14.75;13.25;18.70;99.90;;;;;;5082965;27;10377;-46
2022/06/13 05:13:36;;;;;;;;;18.00;17.50;18.70;99.90;;;;;;5084847;27;10377;-49
2022/06/13 05:16:18;;;;;;;;;13.50;13.50;18.60;99.90;;;;;;5077651;27;10635;-47
2022/06/13 05:19:20;;;;;;;;;14.25;13.25;18.60;99.90;;;;;;5080478;27;10437;-44
2022/06/13 05:21:50;;;;;;;;;16.50;14.75;18.60;99.90;;;;;;5089136;27;10379;-47
2022/06/13 05:24:33;;;;;;;;;15.50;15.50;18.60;99.90;;;;;;5087832;27;10612;-45
2022/06/13 05:27:08;;;;;;;;;16.50;15.50;18.60;99.90;;;;;;5086548;27;10454;-48
2022/06/13 05:29:38;;;;;;;;;13.50;13.50;18.50;99.90;;;;;;5083670;28;10626;-49
2022/06/13 05:32:10;;;;;;;;;13.25;13.25;18.50;99.90;;;;;;5085746;27;10655;-49
2022/06/13 05:34:42;;;;;;;;;11.25;9.50;18.50;99.90;;;;;;5090216;27;10396;-49
2022/06/13 05:37:14;;;;;;;;;10.50;10.50;18.50;99.90;;;;;;5083133;27;10702;-46
2022/06/13 05:39:45;;;;;;;;;9.75;9.75;18.50;99.90;;;;;;5080374;28;11265;-46
2022/06/13 05:42:17;;;;;;;;;8.25;8.25;18.50;99.90;;;;;;5084796;28;10408;-46
2022/06/13 05:44:47;;;;;;;;;7.75;7.75;18.50;99.90;;;;;;5083938;28;10555;-47
2022/06/13 05:47:20;;;;;;;;;8.50;6.50;18.50;99.90;;;;;;5082628;28;10500;-47
2022/06/13 05:49:50;;;;;;;;;4.00;3.25;18.40;99.90;;;;;;5085484;27;10450;-45
2022/06/13 05:52:21;;;;;;;;;3.00;3.00;18.40;99.90;;;;;;5085407;28;10276;-48
2022/06/13 05:54:51;;;;;;;;;1.75;1.75;18.30;99.90;;;;;;5086437;27;9992;-46
2022/06/13 05:57:20;;;;;;;;;4.00;4.00;18.30;99.90;;;;;;5082721;28;10750;-45
2022/06/13 05:59:52;;;;;;;;;3.00;3.00;18.30;99.90;;;;;;5086438;28;10065;-46
2022/06/13 06:02:23;;;;;;;;;2.75;2.75;18.30;99.90;;;;;;5082512;28;10224;-47
2022/06/13 06:04:53;;;;;;;;;4.50;3.25;18.30;99.90;;;;;;5087886;27;9870;-46
2022/06/13 06:07:28;;;;;;;;;2.00;2.00;18.10;99.90;;;;;;5085332;27;9876;-47
2022/06/13 06:09:59;;;;;;;;;3.25;1.50;18.10;99.90;;;;;;5088055;27;10160;-46
2022/06/13 06:12:31;;;;;;;;;2.00;2.00;18.20;99.90;;;;;;5083818;27;9799;-48
2022/06/13 06:15:01;;;;;;;;;1.75;1.75;18.10;99.90;;;;;;5086095;27;10042;-45
2022/06/13 06:17:32;;;;;;;;;2.50;1.25;18.10;99.90;;;;;;5088217;27;9888;-45
2022/06/13 06:20:02;;;;;;;;;2.00;2.00;18.10;99.90;;;;;;5085670;27;10494;-44
2022/06/13 06:22:33;;;;;;;;;2.25;1.50;18.10;99.90;;;;;;5086417;27;9925;-47
2022/06/13 06:25:02;;;;;;;;;4.75;1.50;18.10;99.90;;;;;;5081704;28;9920;-45
2022/06/13 06:27:32;;;;;;;;;1.50;1.50;18.00;99.90;;;;;;5087386;27;9947;-44
2022/06/13 06:30:03;;;;;;;;;2.00;2.00;18.00;99.90;;;;;;5074380;28;10533;-46
2022/06/13 06:32:33;;;;;;;;;2.75;2.75;18.00;99.90;;;;;;5084175;27;9853;-47
2022/06/13 06:35:04;;;;;;;;;2.00;2.00;17.90;99.90;;;;;;5083055;28;10077;-45
2022/06/13 06:37:39;;;;;;;;;3.25;3.25;17.80;99.90;;;;;;5090451;27;9896;-49
2022/06/13 06:40:12;;;;;;;;;2.00;2.00;17.80;99.90;;;;;;5093421;28;10110;-48
2022/06/13 06:42:43;;;;;;;;;3.50;2.00;17.70;99.90;;;;;;5091318;27;9927;-48
2022/06/13 06:45:26;;;;;;;;;3.00;2.25;17.80;99.90;;;;;;5086465;27;10037;-48
2022/06/13 06:47:56;;;;;;;;;2.75;2.75;17.80;99.90;;;;;;5091745;27;10018;-45
2022/06/13 06:50:34;;;;;;;;;1.75;1.75;17.80;99.90;;;;;;5083066;28;9944;-46
2022/06/13 06:53:04;;;;;;;;;1.50;1.50;17.80;99.90;;;;;;5086635;27;9944;-47
2022/06/13 07:01:13;;;;;;;;;3.25;1.50;17.70;99.90;;;;;;5084374;27;10253;-50
2022/06/13 07:03:46;;;;;;;;;2.00;2.00;17.60;99.90;;;;;;5088955;27;10385;-48
2022/06/13 07:06:17;;;;;;;;;3.00;3.00;17.70;99.90;;;;;;5091257;28;10403;-48
2022/06/13 07:08:48;;;;;;;;;2.50;2.00;17.70;99.90;;;;;;5088340;27;10390;-48
2022/06/13 07:14:12;;;;;;;;;4.00;2.75;17.60;99.90;;;;;;5087616;27;10578;-45
2022/06/13 07:16:43;;;;;;;;;4.00;4.00;17.50;99.90;;;;;;5093991;28;11205;-47
2022/06/13 07:19:14;;;;;;;;;4.50;2.75;17.50;99.90;;;;;;5086741;27;11237;-49
2022/06/13 07:21:44;;;;;;;;;3.50;3.50;17.50;99.90;;;;;;5089161;27;12577;-48
2022/06/13 07:24:14;;;;;;;;;3.75;2.50;17.40;99.90;;;;;;5084478;27;10921;-46
2022/06/13 07:26:45;;;;;;;;;5.50;5.00;17.50;99.90;;;;;;5082703;28;10975;-49
2022/06/13 07:29:19;;;;;;;;;6.00;5.25;17.40;99.90;;;;;;5089165;27;10903;-47
2022/06/13 07:31:58;;;;;;;;;5.25;5.25;17.40;99.90;;;;;;5086234;28;11214;-46
2022/06/13 07:34:31;;;;;;;;;7.00;7.00;17.40;99.90;;;;;;5090407;28;11162;-46
2022/06/13 07:37:05;;;;;;;;;8.00;6.50;17.40;99.90;;;;;;5090951;28;11226;-45
2022/06/13 07:39:35;;;;;;;;;6.50;6.25;17.30;99.90;;;;;;5078667;27;13141;-47
2022/06/13 07:42:15;;;;;;;;;5.75;5.50;17.30;99.90;;;;;;5086182;28;10899;-47
2022/06/13 07:44:44;;;;;;;;;6.25;5.00;17.30;99.90;;;;;;5065770;27;11024;-49
2022/06/13 07:47:21;;;;;;;;;7.75;6.50;17.30;99.90;;;;;;5083586;27;11029;-45
2022/06/13 07:49:52;;;;;;;;;7.50;7.25;17.30;99.90;;;;;;5082088;27;10925;-50
2022/06/13 07:52:21;;;;;;;;;7.25;7.25;17.30;99.90;;;;;;5091134;27;10988;-50
2022/06/13 07:54:52;;;;;;;;;5.75;5.75;17.30;99.90;;;;;;5086984;27;11028;-47
2022/06/13 07:57:23;;;;;;;;;8.25;8.25;17.20;99.90;;;;;;5081786;27;10798;-45
2022/06/13 07:59:53;;;;;;;;;8.00;7.75;17.20;99.90;;;;;;5090554;27;11094;-45
2022/06/13 08:02:31;;;;;;;;;10.75;8.50;17.20;99.90;;;;;;5087007;28;10951;-47
2022/06/13 08:05:02;;;;;;;;;8.00;8.00;17.20;99.90;;;;;;5071004;27;11062;-47
2022/06/13 08:07:33;;;;;;;;;9.75;8.75;17.10;99.90;;;;;;5085665;28;11135;-45
2022/06/13 08:10:04;;;;;;;;;7.75;7.25;17.10;99.90;;;;;;5085799;27;11223;-49
2022/06/13 08:12:35;;;;;;;;;5.00;5.00;17.10;99.90;;;;;;5081929;27;11852;-49
2022/06/13 08:15:06;;;;;;;;;7.50;6.25;17.10;99.90;;;;;;5086685;27;10878;-44
2022/06/13 08:17:37;;;;;;;;;6.00;6.00;17.10;99.90;;;;;;5080804;28;10973;-44
2022/06/13 08:20:10;;;;;;;;;5.00;5.00;17.10;99.90;;;;;;5090038;27;11077;-46
2022/06/13 08:22:45;;;;;;;;;5.25;5.25;17.10;99.90;;;;;;5080706;28;11048;-48
2022/06/13 08:25:28;;;;;;;;;7.50;5.50;17.10;99.90;;;;;;5093128;27;11088;-47
2022/06/13 08:28:01;;;;;;;;;5.50;5.00;17.10;99.90;;;;;;5090057;28;11058;-49
2022/06/13 08:30:43;;;;;;;;;5.75;4.50;17.00;99.90;;;;;;5083273;27;10724;-49
2022/06/13 08:33:17;;;;;;;;;6.00;6.00;17.00;99.90;;;;;;5090291;27;11013;-45
2022/06/13 08:35:49;;;;;;;;;5.75;5.75;17.10;99.90;;;;;;5086515;27;11087;-48
2022/06/13 08:38:20;;;;;;;;;5.25;5.25;17.10;99.90;;;;;;5083010;27;11456;-47
2022/06/13 08:40:57;;;;;;;;;6.75;6.75;17.00;99.90;;;;;;5080317;28;10956;-47
2022/06/13 08:43:49;;;;;;;;;10.25;9.00;17.00;99.90;;;;;;5083079;27;11557;-46
2022/06/13 08:46:31;;;;;;;;;5.25;5.25;17.00;99.90;;;;;;5082125;27;11460;-46
2022/06/13 08:49:22;;;;;;;;;7.75;7.25;17.00;99.90;;;;;;5086451;27;11435;-49
2022/06/13 08:51:58;;;;;;;;;8.25;7.25;17.00;99.90;;;;;;5085516;28;11967;-50
2022/06/13 08:54:34;;;;;;;;;10.50;9.25;16.90;99.90;;;;;;5082728;27;11484;-48
2022/06/13 08:57:12;;;;;;;;;11.00;11.00;16.90;99.90;;;;;;5085430;28;11460;-45
2022/06/13 08:59:50;;;;;;;;;11.75;11.75;16.90;99.90;;;;;;5085596;27;12298;-49
2022/06/13 09:02:49;;;;;;;;;16.25;16.25;16.90;99.90;;;;;;5087511;27;11420;-47
2022/06/13 09:05:27;;;;;;;;;19.00;19.00;16.90;99.90;;;;;;5089801;27;11561;-45
2022/06/13 09:08:04;;;;;;;;;23.00;23.00;16.90;99.90;;;;;;5086390;27;11550;-50
2022/06/13 09:10:51;;;;;;;;;29.00;27.75;16.90;99.90;;;;;;5090903;27;11545;-48
2022/06/13 09:13:21;;;;;;;;;30.25;28.50;16.90;99.90;;;;;;5083797;27;11030;-47
2022/06/13 09:16:34;;;;;;;;;39.75;35.50;16.90;99.90;;;;;;5083758;27;13905;-51
2022/06/13 09:19:36;;;;;;;;;40.75;36.25;16.80;99.90;;;;;;5059591;28;12251;-45
2022/06/13 09:22:19;;;;;;;;;45.75;39.00;16.80;99.90;;;;;;5077531;28;11642;-45
2022/06/13 09:25:07;;;;;;;;;47.00;39.75;16.80;99.90;;;;;;5080301;28;12261;-50
2022/06/13 09:28:05;;;;;;;;;50.75;42.75;16.80;99.90;;;;;;5090768;28;11557;-46
2022/06/13 09:30:41;;;;;;;;;40.25;36.00;16.80;99.90;;;;;;5092021;28;11732;-49
2022/06/13 09:33:24;;;;;;;;;49.50;42.50;16.80;99.90;;;;;;5085847;27;11546;-49
2022/06/13 09:36:23;;;;;;;;;44.75;38.25;16.80;99.90;;;;;;5087228;28;8978;-45
2022/06/13 09:38:59;;;;;;;;;36.00;32.50;16.80;99.90;;;;;;5084680;27;11713;-48
2022/06/13 09:41:53;;;;;;;;;44.50;38.75;16.80;99.90;;;;;;5075527;28;11567;-47
2022/06/13 09:44:26;;;;;;;;;33.75;30.25;16.70;99.90;;;;;;5086439;27;8861;-44
2022/06/13 09:47:14;;;;;;;;;29.75;26.25;16.80;99.90;;;;;;5086078;27;11505;-47
2022/06/13 09:50:08;;;;;;;;;21.25;19.75;16.80;99.90;;;;;;5083885;27;11522;-50
2022/06/13 09:53:04;;;;;;;;;17.50;15.25;16.80;99.90;;;;;;5080589;28;12285;-45
2022/06/13 09:55:54;;;;;;;;;16.00;14.00;16.70;99.90;;;;;;5058922;28;11576;-50
2022/06/13 09:58:53;;;;;;;;;12.75;12.75;16.70;99.90;;;;;;5078710;28;11523;-48
2022/06/13 10:01:28;;;;;;;;;5.75;5.75;16.70;99.90;;;;;;5086371;28;11538;-50
2022/06/13 10:04:10;;;;;;;;;11.00;10.00;16.70;99.90;;;;;;5083210;27;11490;-47
2022/06/13 10:06:49;;;;;;;;;12.00;8.50;16.70;99.90;;;;;;5084944;27;11505;-44
2022/06/13 10:09:24;;;;;;;;;7.25;5.25;16.70;99.90;;;;;;5081204;28;13501;-47
2022/06/13 10:12:16;;;;;;;;;6.00;4.25;16.70;99.90;;;;;;5083071;28;11168;-47
2022/06/13 10:15:15;;;;;;;;;3.00;3.00;16.70;99.90;;;;;;5085387;28;11096;-46
2022/06/13 10:17:54;;;;;;;;;4.25;4.00;16.70;99.90;;;;;;5082056;28;10865;-48
2022/06/13 10:20:53;;;;;;;;;2.75;2.75;16.70;99.90;;;;;;5088550;27;10377;-49
2022/06/13 10:24:09;;;;;;;;;4.00;2.75;16.70;99.90;;;;;;5083288;28;10311;-47
2022/06/13 10:26:58;;;;;;;;;3.00;3.00;16.70;99.90;;;;;;5070640;28;10454;-47
2022/06/13 10:29:49;;;;;;;;;3.75;3.00;16.70;99.90;;;;;;5087885;28;10380;-46
2022/06/13 10:32:19;;;;;;;;;4.75;4.75;16.70;99.90;;;;;;5079272;27;10468;-45
2022/06/13 10:35:14;;;;;;;;;6.75;3.75;16.70;99.90;;;;;;5087310;28;12320;-45
2022/06/13 10:37:53;;;;;;;;;3.50;3.00;16.70;99.90;;;;;;5084220;27;10559;-46
2022/06/13 10:40:25;;;;;;;;;5.00;3.00;16.70;99.90;;;;;;5084018;28;10282;-48
2022/06/13 10:42:57;;;;;;;;;2.50;2.00;16.60;99.90;;;;;;5082314;27;10310;-46
2022/06/13 10:45:27;;;;;;;;;3.00;3.00;16.60;99.90;;;;;;5081506;28;10227;-47
2022/06/13 10:48:04;;;;;;;;;2.75;2.75;16.60;99.90;;;;;;5086528;27;10533;-46
2022/06/13 10:51:02;;;;;;;;;3.00;3.00;16.60;99.90;;;;;;5084714;28;10381;-45
2022/06/13 10:53:52;;;;;;;;;2.75;2.75;16.60;99.90;;;;;;5083739;28;10378;-45
2022/06/13 10:56:56;;;;;;;;;2.00;2.00;16.60;99.90;;;;;;5080014;27;10261;-44
2022/06/13 10:59:33;;;;;;;;;3.25;1.50;16.60;99.90;;;;;;5052083;28;10325;-50
2022/06/13 11:02:10;;;;;;;;;4.00;2.00;16.60;99.90;;;;;;5079580;27;10235;-47
2022/06/13 11:04:40;;;;;;;;;2.50;2.50;16.60;99.90;;;;;;5081816;27;10284;-45
2022/06/13 11:07:16;;;;;;;;;2.75;2.75;16.60;99.90;;;;;;5085951;27;10473;-48
2022/06/13 11:09:55;;;;;;;;;2.00;2.00;16.60;99.90;;;;;;5084879;28;10165;-47
2022/06/13 11:12:33;;;;;;;;;2.00;2.00;16.60;99.90;;;;;;5088518;28;10393;-45
2022/06/13 11:24:31;;;;;;;;;2.25;2.25;16.50;99.90;;;;;;5090543;28;10228;-49
2022/06/13 11:30:29;;;;;;;;;4.00;4.00;16.50;99.90;;;;;;5088920;27;10138;-45
2022/06/13 11:33:02;;;;;;;;;2.75;2.00;16.50;99.90;;;;;;5080357;27;10287;-48
2022/06/13 11:35:37;;;;;;;;;4.00;4.00;16.50;99.90;;;;;;5057791;27;10153;-46
2022/06/13 11:38:27;;;;;;;;;2.75;2.75;16.50;99.90;;;;;;5087951;27;11336;-46
2022/06/13 11:41:16;;;;;;;;;2.00;2.00;16.50;99.90;;;;;;5087429;27;10359;-46
2022/06/13 11:44:00;;;;;;;;;3.00;3.00;16.50;99.90;;;;;;5088919;28;10271;-47
2022/06/13 11:46:35;;;;;;;;;2.75;2.75;16.50;99.90;;;;;;5088429;27;10687;-46
2022/06/13 11:49:18;;;;;;;;;2.00;2.00;16.40;99.90;;;;;;5084798;27;10507;-49
2022/06/13 11:52:10;;;;;;;;;2.00;2.00;16.40;99.90;;;;;;5089441;27;10416;-45
2022/06/13 11:54:47;;;;;;;;;4.50;2.25;16.40;99.90;;;;;;5084762;27;10214;-45
2022/06/13 11:57:30;;;;;;;;;1.00;1.00;16.40;99.90;;;;;;5085247;27;10390;-47
2022/06/13 12:00:03;;;;;;;;;2.50;2.50;16.40;99.90;;;;;;5087504;28;10497;-48
2022/06/13 12:03:04;;;;;;;;;5.25;2.75;16.40;99.90;;;;;;5092600;27;10340;-47
2022/06/13 12:05:41;;;;;;;;;1.50;1.50;16.40;99.90;;;;;;5085798;27;10218;-45
2022/06/13 12:08:22;;;;;;;;;3.50;3.50;16.30;99.90;;;;;;5086707;27;10385;-47
2022/06/13 12:10:58;;;;;;;;;2.50;2.50;16.40;99.90;;;;;;5087726;27;10432;-44
2022/06/13 12:13:33;;;;;;;;;1.25;1.25;16.30;99.90;;;;;;5089726;27;10424;-47
2022/06/13 12:16:34;;;;;;;;;2.00;2.00;16.30;99.90;;;;;;5086441;27;11529;-45
2022/06/13 12:19:17;;;;;;;;;2.00;2.00;16.30;99.90;;;;;;5084696;27;10530;-46
2022/06/13 12:22:16;;;;;;;;;3.50;3.50;16.30;99.90;;;;;;5084745;27;10426;-46
2022/06/13 12:25:00;;;;;;;;;2.00;2.00;16.30;99.90;;;;;;5084326;28;11153;-48
2022/06/13 12:27:54;;;;;;;;;3.25;2.00;16.20;99.90;;;;;;5085732;27;10754;-46
2022/06/13 12:30:40;;;;;;;;;3.25;1.75;16.20;99.90;;;;;;5086233;27;10569;-45
2022/06/13 12:33:25;;;;;;;;;1.75;1.75;16.20;99.90;;;;;;5084647;27;11133;-45
2022/06/13 12:36:11;;;;;;;;;3.00;2.50;16.30;99.90;;;;;;5084438;27;10426;-46
2022/06/13 12:39:06;;;;;;;;;4.50;4.00;16.30;99.90;;;;;;5086832;28;10279;-45
2022/06/13 12:41:40;;;;;;;;;2.25;1.00;16.20;99.90;;;;;;5082100;28;10310;-50
2022/06/13 12:44:18;;;;;;;;;3.50;3.00;16.20;99.90;;;;;;5087023;27;10357;-45
2022/06/13 12:47:18;;;;;;;;;2.75;1.25;16.20;99.90;;;;;;5087172;27;11040;-43
2022/06/13 12:50:26;;;;;;;;;2.75;2.75;16.20;99.90;;;;;;5088745;27;10307;-47
2022/06/13 12:53:11;;;;;;;;;3.00;1.75;16.20;99.90;;;;;;5021066;28;10564;-45
2022/06/13 12:55:50;;;;;;;;;3.00;2.00;16.10;99.90;;;;;;5080163;27;10534;-47
2022/06/13 12:58:46;;;;;;;;;3.25;3.25;16.10;99.90;;;;;;5091131;27;10632;-46
2022/06/13 13:01:57;;;;;;;;;2.00;2.00;16.10;99.90;;;;;;5082131;27;10481;-47
2022/06/13 13:04:49;;;;;;;;;3.25;3.25;16.10;99.90;;;;;;5048491;27;10442;-47
2022/06/13 13:07:22;;;;;;;;;5.00;3.00;16.10;99.90;;;;;;5078718;27;11153;-46
2022/06/13 13:10:02;;;;;;;;;1.00;1.00;16.10;99.90;;;;;;5091680;27;10457;-46
2022/06/13 13:12:45;;;;;;;;;3.00;3.00;16.10;99.90;;;;;;5086284;27;10415;-47
2022/06/13 13:15:29;;;;;;;;;2.00;2.00;16.10;99.90;;;;;;5091152;27;10478;-48
2022/06/13 13:18:23;;;;;;;;;2.00;2.00;16.10;99.90;;;;;;5087816;27;10372;-48
2022/06/13 13:21:12;;;;;;;;;1.25;1.25;16.00;99.90;;;;;;5084100;27;10475;-48
2022/06/13 13:23:54;;;;;;;;;5.25;2.25;16.00;99.90;;;;;;5086194;27;10719;-44
2022/06/13 13:26:31;;;;;;;;;2.00;2.00;16.10;99.90;;;;;;5079186;27;10590;-45
2022/06/13 13:29:18;;;;;;;;;2.75;2.00;16.00;99.90;;;;;;5082745;27;10515;-50
2022/06/13 13:32:05;;;;;;;;;4.50;2.00;16.00;99.90;;;;;;5080552;27;10349;-48
2022/06/13 13:35:03;;;;;;;;;2.00;2.00;16.00;99.90;;;;;;5086248;27;10522;-49
2022/06/13 13:37:46;;;;;;;;;1.00;1.00;16.00;99.90;;;;;;5083043;27;10560;-48
2022/06/13 13:40:20;;;;;;;;;1.00;1.00;16.00;99.90;;;;;;5078957;27;10661;-47
2022/06/13 13:43:05;;;;;;;;;2.50;2.00;16.00;99.90;;;;;;5084062;27;10448;-48
2022/06/13 13:45:52;;;;;;;;;2.75;1.00;16.00;99.90;;;;;;5084194;27;10376;-45
2022/06/13 13:48:32;;;;;;;;;1.75;1.75;16.00;99.90;;;;;;5080294;27;10703;-46
2022/06/13 13:51:13;;;;;;;;;4.75;2.00;16.00;99.90;;;;;;5085050;27;10338;-46
2022/06/13 13:54:09;;;;;;;;;1.50;1.50;16.00;99.90;;;;;;5083285;27;10365;-49
2022/06/13 13:57:03;;;;;;;;;2.00;2.00;16.00;99.90;;;;;;5075939;27;10463;-46
2022/06/13 13:59:41;;;;;;;;;2.00;2.00;16.00;99.90;;;;;;5089102;27;11269;-49
2022/06/13 14:02:32;;;;;;;;;2.00;2.00;16.00;99.90;;;;;;5077000;27;10285;-48
2022/06/13 14:05:55;;;;;;;;;1.75;1.75;16.00;99.90;;;;;;5068285;28;10303;-46
2022/06/13 14:08:30;;;;;;;;;2.50;2.50;16.00;99.90;;;;;;4998239;27;10383;-49
2022/06/13 14:11:00;;;;;;;;;1.75;1.75;16.00;99.90;;;;;;5094836;27;10390;-50
2022/06/13 14:13:34;;;;;;;;;2.00;2.00;16.00;99.90;;;;;;5091494;27;10284;-48
2022/06/13 14:16:07;;;;;;;;;2.00;2.00;16.00;99.90;;;;;;5082558;27;11168;-47
2022/06/13 14:18:51;;;;;;;;;1.25;1.25;16.00;99.90;;;;;;5079828;27;10475;-49
2022/06/13 14:21:33;;;;;;;;;3.00;1.25;16.10;99.90;;;;;;5088150;28;10325;-45
2022/06/13 14:24:20;;;;;;;;;2.50;2.50;16.10;99.90;;;;;;5073324;28;11403;-46